sensor_id;sensor_type;location;lat;lon;timestamp;temperature;humidity
18189;DHT22;9219;50.396;8.546;2022-12-24T00:00:55;9.60;99.90
18189;DHT22;9219;50.396;8.546;2022-12-24T00:03:41;9.70;99.90
18189;DHT22;9219;50.396;8.546;2022-12-24T00:06:17;9.60;99.90
18189;DHT22;9219;50.396;8.546;2022-12-24T00:08:54;9.60;99.90
18189;DHT22;9219;50.396;8.546;2022-12-24T00:11:37;9.60;99.90
18189;DHT22;9219;50.396;8.546;2022-12-24T00:14:12;9.50;99.90
18189;DHT22;9219;50.396;8.546;2022-12-24T00:17:02;9.50;99.90
18189;DHT22;9219;50.396;8.546;2022-12-24T00:25:31;9.60;99.90
18189;DHT22;9219;50.396;8.546;2022-12-24T00:27:58;9.50;99.90
18189;DHT22;9219;50.396;8.546;2022-12-24T00:30:30;9.50;99.90
18189;DHT22;9219;50.396;8.546;2022-12-24T00:33:05;9.50;99.90
18189;DHT22;9219;50.396;8.546;2022-12-24T00:35:41;9.60;99.90
18189;DHT22;9219;50.396;8.546;2022-12-24T00:38:38;9.50;99.90
18189;DHT22;9219;50.396;8.546;2022-12-24T00:41:08;9.40;99.90
18189;DHT22;9219;50.396;8.546;2022-12-24T00:44:03;9.30;99.90
18189;DHT22;9219;50.396;8.546;2022-12-24T01:01:23;9.40;99.90
18189;DHT22;9219;50.396;8.546;2022-12-24T01:03:52;9.30;99.90
18189;DHT22;9219;50.396;8.546;2022-12-24T01:06:40;9.20;99.90
18189;DHT22;9219;50.396;8.546;2022-12-24T01:09:08;9.20;99.90
18189;DHT22;9219;50.396;8.546;2022-12-24T01:11:36;9.20;99.90
18189;DHT22;9219;50.396;8.546;2022-12-24T01:14:03;9.10;99.90
18189;DHT22;9219;50.396;8.546;2022-12-24T01:16:34;9.20;99.90
18189;DHT22;9219;50.396;8.546;2022-12-24T01:21:44;9.10;99.90
18189;DHT22;9219;50.396;8.546;2022-12-24T01:24:13;9.10;99.90
18189;DHT22;9219;50.396;8.546;2022-12-24T01:26:42;9.10;99.90
18189;DHT22;9219;50.396;8.546;2022-12-24T01:29:10;9.10;99.90
18189;DHT22;9219;50.396;8.546;2022-12-24T01:31:40;9.20;99.90
18189;DHT22;9219;50.396;8.546;2022-12-24T01:34:08;9.20;99.90
18189;DHT22;9219;50.396;8.546;2022-12-24T01:36:35;9.20;99.90
18189;DHT22;9219;50.396;8.546;2022-12-24T01:39:04;9.20;99.90
18189;DHT22;9219;50.396;8.546;2022-12-24T01:47:07;9.10;99.90
18189;DHT22;9219;50.396;8.546;2022-12-24T01:49:37;9.10;99.90
18189;DHT22;9219;50.396;8.546;2022-12-24T01:52:08;9.20;99.90
18189;DHT22;9219;50.396;8.546;2022-12-24T01:54:41;9.10;99.90
18189;DHT22;9219;50.396;8.546;2022-12-24T01:57:13;9.00;99.90
18189;DHT22;9219;50.396;8.546;2022-12-24T01:59:43;9.10;99.90
18189;DHT22;9219;50.396;8.546;2022-12-24T02:02:14;9.20;99.90
18189;DHT22;9219;50.396;8.546;2022-12-24T02:09:55;9.20;99.90
18189;DHT22;9219;50.396;8.546;2022-12-24T02:12:23;9.40;99.90
18189;DHT22;9219;50.396;8.546;2022-12-24T02:14:52;9.30;99.90
18189;DHT22;9219;50.396;8.546;2022-12-24T02:17:28;9.30;99.90
18189;DHT22;9219;50.396;8.546;2022-12-24T02:23:16;9.40;99.90
18189;DHT22;9219;50.396;8.546;2022-12-24T02:26:02;9.60;99.90
18189;DHT22;9219;50.396;8.546;2022-12-24T02:33:57;9.40;99.90
18189;DHT22;9219;50.396;8.546;2022-12-24T02:36:30;9.50;99.90
18189;DHT22;9219;50.396;8.546;2022-12-24T02:39:02;9.40;99.90
18189;DHT22;9219;50.396;8.546;2022-12-24T02:41:32;9.40;99.90
18189;DHT22;9219;50.396;8.546;2022-12-24T02:44:17;9.30;99.90
18189;DHT22;9219;50.396;8.546;2022-12-24T02:46:47;9.70;99.90
18189;DHT22;9219;50.396;8.546;2022-12-24T02:49:16;9.70;99.90
18189;DHT22;9219;50.396;8.546;2022-12-24T02:54:51;9.80;99.90
18189;DHT22;9219;50.396;8.546;2022-12-24T02:57:27;9.70;99.90
18189;DHT22;9219;50.396;8.546;2022-12-24T03:00:03;10.00;99.90
18189;DHT22;9219;50.396;8.546;2022-12-24T03:02:46;10.10;99.90
18189;DHT22;9219;50.396;8.546;2022-12-24T03:05:20;10.10;99.90
18189;DHT22;9219;50.396;8.546;2022-12-24T03:07:59;9.90;99.90
18189;DHT22;9219;50.396;8.546;2022-12-24T03:10:33;10.20;99.90
18189;DHT22;9219;50.396;8.546;2022-12-24T03:18:31;9.90;99.90
18189;DHT22;9219;50.396;8.546;2022-12-24T03:24:43;10.00;99.90
18189;DHT22;9219;50.396;8.546;2022-12-24T03:27:24;9.80;99.90
18189;DHT22;9219;50.396;8.546;2022-12-24T03:33:53;10.00;99.90
18189;DHT22;9219;50.396;8.546;2022-12-24T03:36:27;9.80;99.90
18189;DHT22;9219;50.396;8.546;2022-12-24T03:39:19;9.60;99.90
18189;DHT22;9219;50.396;8.546;2022-12-24T03:42:32;9.70;99.90
18189;DHT22;9219;50.396;8.546;2022-12-24T03:49:17;9.60;99.90
18189;DHT22;9219;50.396;8.546;2022-12-24T03:52:10;9.90;99.90
18189;DHT22;9219;50.396;8.546;2022-12-24T03:54:46;10.10;99.90
18189;DHT22;9219;50.396;8.546;2022-12-24T03:57:51;10.10;99.90
18189;DHT22;9219;50.396;8.546;2022-12-24T04:03:50;10.10;99.90
18189;DHT22;9219;50.396;8.546;2022-12-24T04:06:49;10.00;99.90
18189;DHT22;9219;50.396;8.546;2022-12-24T04:09:17;9.90;99.90
18189;DHT22;9219;50.396;8.546;2022-12-24T04:11:44;9.80;99.90
18189;DHT22;9219;50.396;8.546;2022-12-24T04:14:11;9.70;99.90
18189;DHT22;9219;50.396;8.546;2022-12-24T04:16:41;9.90;99.90
18189;DHT22;9219;50.396;8.546;2022-12-24T04:19:09;10.00;99.90
18189;DHT22;9219;50.396;8.546;2022-12-24T04:21:38;10.10;99.90
18189;DHT22;9219;50.396;8.546;2022-12-24T04:29:06;10.30;99.90
18189;DHT22;9219;50.396;8.546;2022-12-24T04:31:34;10.50;99.90
18189;DHT22;9219;50.396;8.546;2022-12-24T04:34:01;10.50;99.90
18189;DHT22;9219;50.396;8.546;2022-12-24T04:36:28;10.60;99.90
18189;DHT22;9219;50.396;8.546;2022-12-24T04:38:57;10.60;99.90
18189;DHT22;9219;50.396;8.546;2022-12-24T04:41:23;10.50;99.90
18189;DHT22;9219;50.396;8.546;2022-12-24T04:43:55;10.40;99.90
18189;DHT22;9219;50.396;8.546;2022-12-24T05:01:15;10.50;99.90
18189;DHT22;9219;50.396;8.546;2022-12-24T05:03:43;10.70;99.90
18189;DHT22;9219;50.396;8.546;2022-12-24T05:06:13;10.80;99.90
18189;DHT22;9219;50.396;8.546;2022-12-24T05:08:41;11.00;99.90
18189;DHT22;9219;50.396;8.546;2022-12-24T05:11:09;10.80;99.90
18189;DHT22;9219;50.396;8.546;2022-12-24T05:13:39;10.70;99.90
18189;DHT22;9219;50.396;8.546;2022-12-24T05:16:15;10.80;99.90
18189;DHT22;9219;50.396;8.546;2022-12-24T05:19:13;10.90;99.90
18189;DHT22;9219;50.396;8.546;2022-12-24T05:21:41;10.80;99.90
18189;DHT22;9219;50.396;8.546;2022-12-24T05:24:10;10.90;99.90
18189;DHT22;9219;50.396;8.546;2022-12-24T05:26:56;10.90;99.90
18189;DHT22;9219;50.396;8.546;2022-12-24T05:29:24;10.90;99.90
18189;DHT22;9219;50.396;8.546;2022-12-24T05:31:51;10.70;99.90
18189;DHT22;9219;50.396;8.546;2022-12-24T05:34:19;10.80;99.90
18189;DHT22;9219;50.396;8.546;2022-12-24T05:39:40;10.90;99.90
18189;DHT22;9219;50.396;8.546;2022-12-24T05:42:08;11.00;99.90
18189;DHT22;9219;50.396;8.546;2022-12-24T05:44:35;10.80;99.90
18189;DHT22;9219;50.396;8.546;2022-12-24T05:47:03;10.70;99.90
18189;DHT22;9219;50.396;8.546;2022-12-24T05:49:30;10.80;99.90
18189;DHT22;9219;50.396;8.546;2022-12-24T05:51:57;10.80;99.90
18189;DHT22;9219;50.396;8.546;2022-12-24T05:54:24;10.60;99.90
18189;DHT22;9219;50.396;8.546;2022-12-24T06:01:30;10.70;99.90
18189;DHT22;9219;50.396;8.546;2022-12-24T06:04:04;10.50;99.90
18189;DHT22;9219;50.396;8.546;2022-12-24T06:06:32;10.40;99.90
18189;DHT22;9219;50.396;8.546;2022-12-24T06:09:02;10.40;99.90
18189;DHT22;9219;50.396;8.546;2022-12-24T06:11:29;10.40;99.90
18189;DHT22;9219;50.396;8.546;2022-12-24T06:13:56;10.10;99.90
18189;DHT22;9219;50.396;8.546;2022-12-24T06:16:34;10.30;99.90
18189;DHT22;9219;50.396;8.546;2022-12-24T06:23:43;10.20;99.90
18189;DHT22;9219;50.396;8.546;2022-12-24T06:26:13;9.70;99.90
18189;DHT22;9219;50.396;8.546;2022-12-24T06:28:42;9.90;99.90
18189;DHT22;9219;50.396;8.546;2022-12-24T06:31:13;9.60;99.90
18189;DHT22;9219;50.396;8.546;2022-12-24T06:33:41;9.40;99.90
18189;DHT22;9219;50.396;8.546;2022-12-24T06:36:13;9.70;99.90
18189;DHT22;9219;50.396;8.546;2022-12-24T06:38:46;9.40;99.90
18189;DHT22;9219;50.396;8.546;2022-12-24T06:48:43;9.00;99.90
18189;DHT22;9219;50.396;8.546;2022-12-24T06:51:11;9.00;99.90
18189;DHT22;9219;50.396;8.546;2022-12-24T06:53:38;8.90;99.90
18189;DHT22;9219;50.396;8.546;2022-12-24T06:56:19;9.00;99.90
18189;DHT22;9219;50.396;8.546;2022-12-24T06:58:50;9.10;99.90
18189;DHT22;9219;50.396;8.546;2022-12-24T07:01:18;9.10;99.90
18189;DHT22;9219;50.396;8.546;2022-12-24T07:03:52;9.10;99.90
18189;DHT22;9219;50.396;8.546;2022-12-24T07:11:11;8.80;99.90
18189;DHT22;9219;50.396;8.546;2022-12-24T07:13:39;8.80;99.90
18189;DHT22;9219;50.396;8.546;2022-12-24T07:16:10;8.90;99.90
18189;DHT22;9219;50.396;8.546;2022-12-24T07:18:38;8.80;99.90
18189;DHT22;9219;50.396;8.546;2022-12-24T07:21:06;8.80;99.90
18189;DHT22;9219;50.396;8.546;2022-12-24T07:23:34;8.90;99.90
18189;DHT22;9219;50.396;8.546;2022-12-24T07:26:03;9.00;99.90
18189;DHT22;9219;50.396;8.546;2022-12-24T07:28:34;8.90;99.90
18189;DHT22;9219;50.396;8.546;2022-12-24T07:36:14;9.00;99.90
18189;DHT22;9219;50.396;8.546;2022-12-24T07:38:43;9.40;99.90
18189;DHT22;9219;50.396;8.546;2022-12-24T07:41:12;9.70;99.90
18189;DHT22;9219;50.396;8.546;2022-12-24T07:43:40;10.00;99.90
18189;DHT22;9219;50.396;8.546;2022-12-24T07:46:13;10.30;99.90
18189;DHT22;9219;50.396;8.546;2022-12-24T07:48:41;10.10;99.90
18189;DHT22;9219;50.396;8.546;2022-12-24T07:51:22;10.30;99.90
18189;DHT22;9219;50.396;8.546;2022-12-24T07:57:53;10.50;99.90
18189;DHT22;9219;50.396;8.546;2022-12-24T08:00:21;10.40;99.90
18189;DHT22;9219;50.396;8.546;2022-12-24T08:02:52;10.50;99.90
18189;DHT22;9219;50.396;8.546;2022-12-24T08:05:19;10.60;99.90
18189;DHT22;9219;50.396;8.546;2022-12-24T08:07:47;10.60;99.90
18189;DHT22;9219;50.396;8.546;2022-12-24T08:10:14;10.50;99.90
18189;DHT22;9219;50.396;8.546;2022-12-24T08:12:41;10.40;99.90
18189;DHT22;9219;50.396;8.546;2022-12-24T08:18:54;10.60;99.90
18189;DHT22;9219;50.396;8.546;2022-12-24T08:21:22;10.70;99.90
18189;DHT22;9219;50.396;8.546;2022-12-24T08:23:50;10.70;99.90
18189;DHT22;9219;50.396;8.546;2022-12-24T08:26:17;10.60;99.90
18189;DHT22;9219;50.396;8.546;2022-12-24T08:28:44;10.70;99.90
18189;DHT22;9219;50.396;8.546;2022-12-24T08:31:12;10.80;99.90
18189;DHT22;9219;50.396;8.546;2022-12-24T08:33:41;10.80;99.90
18189;DHT22;9219;50.396;8.546;2022-12-24T08:40:42;10.80;99.90
18189;DHT22;9219;50.396;8.546;2022-12-24T08:43:09;10.60;99.90
18189;DHT22;9219;50.396;8.546;2022-12-24T08:45:38;10.60;99.90
18189;DHT22;9219;50.396;8.546;2022-12-24T08:48:09;10.70;99.90
18189;DHT22;9219;50.396;8.546;2022-12-24T08:50:38;10.50;99.90
18189;DHT22;9219;50.396;8.546;2022-12-24T08:53:06;10.50;99.90
18189;DHT22;9219;50.396;8.546;2022-12-24T08:55:33;10.90;99.90
18189;DHT22;9219;50.396;8.546;2022-12-24T09:02:26;11.20;99.90
18189;DHT22;9219;50.396;8.546;2022-12-24T09:04:53;11.20;99.90
18189;DHT22;9219;50.396;8.546;2022-12-24T09:07:21;11.20;99.90
18189;DHT22;9219;50.396;8.546;2022-12-24T09:09:51;11.30;99.90
18189;DHT22;9219;50.396;8.546;2022-12-24T09:12:19;11.30;99.90
18189;DHT22;9219;50.396;8.546;2022-12-24T09:14:50;11.40;99.90
18189;DHT22;9219;50.396;8.546;2022-12-24T09:23:05;11.60;99.90
18189;DHT22;9219;50.396;8.546;2022-12-24T09:25:39;11.40;99.90
18189;DHT22;9219;50.396;8.546;2022-12-24T09:28:08;11.40;99.90
18189;DHT22;9219;50.396;8.546;2022-12-24T09:30:38;11.30;99.90
18189;DHT22;9219;50.396;8.546;2022-12-24T09:33:05;11.50;99.90
18189;DHT22;9219;50.396;8.546;2022-12-24T09:35:50;11.60;99.90
18189;DHT22;9219;50.396;8.546;2022-12-24T09:41:09;11.60;99.90
18189;DHT22;9219;50.396;8.546;2022-12-24T09:43:45;11.40;99.90
18189;DHT22;9219;50.396;8.546;2022-12-24T09:46:20;11.50;99.90
18189;DHT22;9219;50.396;8.546;2022-12-24T09:49:03;11.70;99.90
18189;DHT22;9219;50.396;8.546;2022-12-24T09:51:40;11.60;99.90
18189;DHT22;9219;50.396;8.546;2022-12-24T09:54:14;11.20;99.90
18189;DHT22;9219;50.396;8.546;2022-12-24T09:56:47;11.20;99.90
18189;DHT22;9219;50.396;8.546;2022-12-24T09:59:20;11.40;99.90
18189;DHT22;9219;50.396;8.546;2022-12-24T10:09:24;11.70;99.90
18189;DHT22;9219;50.396;8.546;2022-12-24T10:12:06;11.10;99.90
18189;DHT22;9219;50.396;8.546;2022-12-24T10:14:53;10.90;99.90
18189;DHT22;9219;50.396;8.546;2022-12-24T10:17:38;11.00;99.90
18189;DHT22;9219;50.396;8.546;2022-12-24T10:20:35;11.00;99.90
18189;DHT22;9219;50.396;8.546;2022-12-24T10:23:15;11.10;99.90
18189;DHT22;9219;50.396;8.546;2022-12-24T10:31:03;11.50;99.90
18189;DHT22;9219;50.396;8.546;2022-12-24T10:33:36;11.80;99.90
18189;DHT22;9219;50.396;8.546;2022-12-24T10:36:09;11.60;99.90
18189;DHT22;9219;50.396;8.546;2022-12-24T10:38:41;11.60;99.90
18189;DHT22;9219;50.396;8.546;2022-12-24T10:41:18;11.50;99.90
18189;DHT22;9219;50.396;8.546;2022-12-24T10:43:47;11.60;99.90
18189;DHT22;9219;50.396;8.546;2022-12-24T10:46:18;11.30;99.90
18189;DHT22;9219;50.396;8.546;2022-12-24T10:53:46;11.50;99.90
18189;DHT22;9219;50.396;8.546;2022-12-24T10:56:19;12.00;99.90
18189;DHT22;9219;50.396;8.546;2022-12-24T10:58:52;11.30;99.90
18189;DHT22;9219;50.396;8.546;2022-12-24T11:01:20;10.70;99.90
18189;DHT22;9219;50.396;8.546;2022-12-24T11:04:15;10.50;99.90
18189;DHT22;9219;50.396;8.546;2022-12-24T11:06:52;10.70;99.90
18189;DHT22;9219;50.396;8.546;2022-12-24T11:09:28;10.60;99.90
18189;DHT22;9219;50.396;8.546;2022-12-24T11:16:29;10.90;99.90
18189;DHT22;9219;50.396;8.546;2022-12-24T11:19:28;10.70;99.90
18189;DHT22;9219;50.396;8.546;2022-12-24T11:22:02;10.80;99.90
18189;DHT22;9219;50.396;8.546;2022-12-24T11:24:33;10.90;99.90
18189;DHT22;9219;50.396;8.546;2022-12-24T11:27:41;10.90;99.90
18189;DHT22;9219;50.396;8.546;2022-12-24T11:30:26;11.40;99.90
18189;DHT22;9219;50.396;8.546;2022-12-24T11:33:19;11.10;99.90
18189;DHT22;9219;50.396;8.546;2022-12-24T11:36:00;11.10;99.90
18189;DHT22;9219;50.396;8.546;2022-12-24T11:54:22;11.10;99.90
18189;DHT22;9219;50.396;8.546;2022-12-24T11:56:56;11.70;99.90
18189;DHT22;9219;50.396;8.546;2022-12-24T11:59:31;11.70;99.90
18189;DHT22;9219;50.396;8.546;2022-12-24T12:02:08;11.90;99.90
18189;DHT22;9219;50.396;8.546;2022-12-24T12:04:41;11.80;99.90
18189;DHT22;9219;50.396;8.546;2022-12-24T12:07:14;12.00;99.90
18189;DHT22;9219;50.396;8.546;2022-12-24T12:09:48;12.10;99.90
18189;DHT22;9219;50.396;8.546;2022-12-24T12:17:29;12.40;99.90
18189;DHT22;9219;50.396;8.546;2022-12-24T12:20:03;12.50;99.90
18189;DHT22;9219;50.396;8.546;2022-12-24T12:22:43;12.60;99.90
18189;DHT22;9219;50.396;8.546;2022-12-24T12:25:20;12.90;99.90
18189;DHT22;9219;50.396;8.546;2022-12-24T12:27:51;12.90;99.90
18189;DHT22;9219;50.396;8.546;2022-12-24T12:30:23;12.80;99.90
18189;DHT22;9219;50.396;8.546;2022-12-24T12:35:40;12.40;99.90
18189;DHT22;9219;50.396;8.546;2022-12-24T12:38:12;12.80;99.90
18189;DHT22;9219;50.396;8.546;2022-12-24T12:41:09;12.60;99.90
18189;DHT22;9219;50.396;8.546;2022-12-24T12:44:09;12.60;99.90
18189;DHT22;9219;50.396;8.546;2022-12-24T12:46:53;12.50;99.90
18189;DHT22;9219;50.396;8.546;2022-12-24T12:49:33;12.50;99.90
18189;DHT22;9219;50.396;8.546;2022-12-24T12:56:35;12.30;99.90
18189;DHT22;9219;50.396;8.546;2022-12-24T12:59:11;12.60;99.90
18189;DHT22;9219;50.396;8.546;2022-12-24T13:01:52;12.30;99.90
18189;DHT22;9219;50.396;8.546;2022-12-24T13:04:53;12.40;99.90
18189;DHT22;9219;50.396;8.546;2022-12-24T13:08:00;12.60;99.90
18189;DHT22;9219;50.396;8.546;2022-12-24T13:11:02;12.80;99.90
18189;DHT22;9219;50.396;8.546;2022-12-24T13:16:37;13.00;99.90
18189;DHT22;9219;50.396;8.546;2022-12-24T13:19:21;12.70;99.90
18189;DHT22;9219;50.396;8.546;2022-12-24T13:21:59;12.10;99.90
18189;DHT22;9219;50.396;8.546;2022-12-24T13:24:30;12.10;99.90
18189;DHT22;9219;50.396;8.546;2022-12-24T13:27:03;12.40;99.90
18189;DHT22;9219;50.396;8.546;2022-12-24T13:29:43;12.40;99.90
18189;DHT22;9219;50.396;8.546;2022-12-24T13:32:45;12.40;99.90
18189;DHT22;9219;50.396;8.546;2022-12-24T13:35:35;12.60;99.90
18189;DHT22;9219;50.396;8.546;2022-12-24T13:44:01;12.50;99.90
18189;DHT22;9219;50.396;8.546;2022-12-24T13:46:49;12.80;99.90
18189;DHT22;9219;50.396;8.546;2022-12-24T13:49:21;13.10;99.90
18189;DHT22;9219;50.396;8.546;2022-12-24T13:52:15;13.10;99.90
18189;DHT22;9219;50.396;8.546;2022-12-24T13:54:59;13.00;99.90
18189;DHT22;9219;50.396;8.546;2022-12-24T13:57:37;13.10;99.90
18189;DHT22;9219;50.396;8.546;2022-12-24T14:00:25;13.10;99.90
18189;DHT22;9219;50.396;8.546;2022-12-24T14:05:43;13.00;99.90
18189;DHT22;9219;50.396;8.546;2022-12-24T14:08:16;12.90;99.90
18189;DHT22;9219;50.396;8.546;2022-12-24T14:11:05;12.80;99.90
18189;DHT22;9219;50.396;8.546;2022-12-24T14:14:09;12.80;99.90
18189;DHT22;9219;50.396;8.546;2022-12-24T14:16:48;12.60;99.90
18189;DHT22;9219;50.396;8.546;2022-12-24T14:19:20;12.60;99.90
18189;DHT22;9219;50.396;8.546;2022-12-24T14:24:41;12.50;99.90
18189;DHT22;9219;50.396;8.546;2022-12-24T14:27:16;12.60;99.90
18189;DHT22;9219;50.396;8.546;2022-12-24T14:29:54;12.50;99.90
18189;DHT22;9219;50.396;8.546;2022-12-24T14:32:23;12.60;99.90
18189;DHT22;9219;50.396;8.546;2022-12-24T14:35:08;12.50;99.90
18189;DHT22;9219;50.396;8.546;2022-12-24T14:37:37;12.40;99.90
18189;DHT22;9219;50.396;8.546;2022-12-24T14:40:16;12.50;99.90
18189;DHT22;9219;50.396;8.546;2022-12-24T14:46:57;12.60;99.90
18189;DHT22;9219;50.396;8.546;2022-12-24T14:49:38;12.50;99.90
18189;DHT22;9219;50.396;8.546;2022-12-24T14:52:17;12.40;99.90
18189;DHT22;9219;50.396;8.546;2022-12-24T14:55:30;12.40;99.90
18189;DHT22;9219;50.396;8.546;2022-12-24T14:58:23;12.40;99.90
18189;DHT22;9219;50.396;8.546;2022-12-24T15:00:53;12.60;99.90
18189;DHT22;9219;50.396;8.546;2022-12-24T15:03:25;12.60;99.90
18189;DHT22;9219;50.396;8.546;2022-12-24T15:05:56;12.40;99.90
18189;DHT22;9219;50.396;8.546;2022-12-24T15:08:29;12.20;99.90
18189;DHT22;9219;50.396;8.546;2022-12-24T15:16:11;12.30;99.90
18189;DHT22;9219;50.396;8.546;2022-12-24T15:18:43;12.20;99.90
18189;DHT22;9219;50.396;8.546;2022-12-24T15:21:17;12.20;99.90
18189;DHT22;9219;50.396;8.546;2022-12-24T15:23:46;12.40;99.90
18189;DHT22;9219;50.396;8.546;2022-12-24T15:26:24;12.40;99.90
18189;DHT22;9219;50.396;8.546;2022-12-24T15:28:54;12.30;99.90
18189;DHT22;9219;50.396;8.546;2022-12-24T15:31:30;12.20;99.90
18189;DHT22;9219;50.396;8.546;2022-12-24T15:37:13;11.90;99.90
18189;DHT22;9219;50.396;8.546;2022-12-24T15:39:53;11.90;99.90
18189;DHT22;9219;50.396;8.546;2022-12-24T15:42:23;11.90;99.90
18189;DHT22;9219;50.396;8.546;2022-12-24T15:44:59;12.00;99.90
18189;DHT22;9219;50.396;8.546;2022-12-24T15:47:30;12.00;99.90
18189;DHT22;9219;50.396;8.546;2022-12-24T15:50:04;11.90;99.90
18189;DHT22;9219;50.396;8.546;2022-12-24T15:55:32;11.70;99.90
18189;DHT22;9219;50.396;8.546;2022-12-24T15:58:13;11.60;99.90
18189;DHT22;9219;50.396;8.546;2022-12-24T16:00:42;11.50;99.90
18189;DHT22;9219;50.396;8.546;2022-12-24T16:03:16;11.60;99.90
18189;DHT22;9219;50.396;8.546;2022-12-24T16:05:44;11.50;99.90
18189;DHT22;9219;50.396;8.546;2022-12-24T16:08:27;11.40;99.90
18189;DHT22;9219;50.396;8.546;2022-12-24T16:16:18;11.50;99.90
18189;DHT22;9219;50.396;8.546;2022-12-24T16:18:51;11.60;99.90
18189;DHT22;9219;50.396;8.546;2022-12-24T16:21:22;11.70;99.90
18189;DHT22;9219;50.396;8.546;2022-12-24T16:23:53;11.60;99.90
18189;DHT22;9219;50.396;8.546;2022-12-24T16:26:22;11.40;99.90
18189;DHT22;9219;50.396;8.546;2022-12-24T16:28:50;11.30;99.90
18189;DHT22;9219;50.396;8.546;2022-12-24T16:31:28;11.40;99.90
18189;DHT22;9219;50.396;8.546;2022-12-24T16:36:32;11.50;99.90
18189;DHT22;9219;50.396;8.546;2022-12-24T16:39:01;11.40;99.90
18189;DHT22;9219;50.396;8.546;2022-12-24T16:41:46;11.40;99.90
18189;DHT22;9219;50.396;8.546;2022-12-24T16:44:32;11.30;99.90
18189;DHT22;9219;50.396;8.546;2022-12-24T16:47:00;11.20;99.90
18189;DHT22;9219;50.396;8.546;2022-12-24T16:49:27;11.20;99.90
18189;DHT22;9219;50.396;8.546;2022-12-24T16:54:36;11.30;99.90
18189;DHT22;9219;50.396;8.546;2022-12-24T16:57:04;11.10;99.90
18189;DHT22;9219;50.396;8.546;2022-12-24T16:59:31;11.00;99.90
18189;DHT22;9219;50.396;8.546;2022-12-24T17:01:58;11.00;99.90
18189;DHT22;9219;50.396;8.546;2022-12-24T17:04:26;10.90;99.90
18189;DHT22;9219;50.396;8.546;2022-12-24T17:06:54;10.80;99.90
18189;DHT22;9219;50.396;8.546;2022-12-24T17:09:21;10.90;99.90
18189;DHT22;9219;50.396;8.546;2022-12-24T17:16:10;11.00;99.90
18189;DHT22;9219;50.396;8.546;2022-12-24T17:18:38;11.20;99.90
18189;DHT22;9219;50.396;8.546;2022-12-24T17:21:06;11.10;99.90
18189;DHT22;9219;50.396;8.546;2022-12-24T17:23:36;11.30;99.90
18189;DHT22;9219;50.396;8.546;2022-12-24T17:26:04;11.40;99.90
18189;DHT22;9219;50.396;8.546;2022-12-24T17:28:39;11.60;99.90
18189;DHT22;9219;50.396;8.546;2022-12-24T17:31:11;11.60;99.90
18189;DHT22;9219;50.396;8.546;2022-12-24T17:33:40;11.40;99.90
18189;DHT22;9219;50.396;8.546;2022-12-24T17:43:52;11.40;99.90
18189;DHT22;9219;50.396;8.546;2022-12-24T17:46:22;11.30;99.90
18189;DHT22;9219;50.396;8.546;2022-12-24T17:48:51;11.50;99.90
18189;DHT22;9219;50.396;8.546;2022-12-24T17:51:21;11.40;99.90
18189;DHT22;9219;50.396;8.546;2022-12-24T17:53:53;11.40;99.90
18189;DHT22;9219;50.396;8.546;2022-12-24T17:56:22;11.40;99.90
18189;DHT22;9219;50.396;8.546;2022-12-24T17:58:50;11.30;99.90
18189;DHT22;9219;50.396;8.546;2022-12-24T18:01:26;11.40;99.90
18189;DHT22;9219;50.396;8.546;2022-12-24T18:04:01;11.40;99.90
18189;DHT22;9219;50.396;8.546;2022-12-24T18:19:47;11.20;99.90
18189;DHT22;9219;50.396;8.546;2022-12-24T18:22:19;10.50;99.90
18189;DHT22;9219;50.396;8.546;2022-12-24T18:24:47;10.80;99.90
18189;DHT22;9219;50.396;8.546;2022-12-24T18:27:15;10.90;99.90
18189;DHT22;9219;50.396;8.546;2022-12-24T18:29:47;11.00;99.90
18189;DHT22;9219;50.396;8.546;2022-12-24T18:32:15;11.10;99.90
18189;DHT22;9219;50.396;8.546;2022-12-24T18:34:44;11.40;99.90
18189;DHT22;9219;50.396;8.546;2022-12-24T18:39:52;11.50;99.90
18189;DHT22;9219;50.396;8.546;2022-12-24T18:42:20;11.40;99.90
18189;DHT22;9219;50.396;8.546;2022-12-24T18:44:47;11.30;99.90
18189;DHT22;9219;50.396;8.546;2022-12-24T18:47:15;11.20;99.90
18189;DHT22;9219;50.396;8.546;2022-12-24T18:49:42;11.30;99.90
18189;DHT22;9219;50.396;8.546;2022-12-24T18:52:10;11.30;99.90
18189;DHT22;9219;50.396;8.546;2022-12-24T18:54:40;11.30;99.90
18189;DHT22;9219;50.396;8.546;2022-12-24T19:01:51;11.30;99.90
18189;DHT22;9219;50.396;8.546;2022-12-24T19:04:19;11.20;99.90
18189;DHT22;9219;50.396;8.546;2022-12-24T19:06:47;11.00;99.90
18189;DHT22;9219;50.396;8.546;2022-12-24T19:09:20;10.90;99.90
18189;DHT22;9219;50.396;8.546;2022-12-24T19:11:52;11.00;99.90
18189;DHT22;9219;50.396;8.546;2022-12-24T19:14:21;10.90;99.90
18189;DHT22;9219;50.396;8.546;2022-12-24T19:16:53;10.90;99.90
18189;DHT22;9219;50.396;8.546;2022-12-24T19:19:21;10.90;99.90
18189;DHT22;9219;50.396;8.546;2022-12-24T19:21:54;10.90;99.90
18189;DHT22;9219;50.396;8.546;2022-12-24T19:24:21;11.00;99.90
18189;DHT22;9219;50.396;8.546;2022-12-24T19:31:56;10.60;99.90
18189;DHT22;9219;50.396;8.546;2022-12-24T19:34:25;10.80;99.90
18189;DHT22;9219;50.396;8.546;2022-12-24T19:36:56;10.80;99.90
18189;DHT22;9219;50.396;8.546;2022-12-24T19:39:24;10.60;99.90
18189;DHT22;9219;50.396;8.546;2022-12-24T19:41:58;10.60;99.90
18189;DHT22;9219;50.396;8.546;2022-12-24T19:44:26;10.60;99.90
18189;DHT22;9219;50.396;8.546;2022-12-24T19:46:53;10.60;99.90
18189;DHT22;9219;50.396;8.546;2022-12-24T19:52:02;10.70;99.90
18189;DHT22;9219;50.396;8.546;2022-12-24T19:54:29;10.70;99.90
18189;DHT22;9219;50.396;8.546;2022-12-24T19:56:57;10.70;99.90
18189;DHT22;9219;50.396;8.546;2022-12-24T19:59:24;10.50;99.90
18189;DHT22;9219;50.396;8.546;2022-12-24T20:01:51;10.40;99.90
18189;DHT22;9219;50.396;8.546;2022-12-24T20:04:19;10.50;99.90
18189;DHT22;9219;50.396;8.546;2022-12-24T20:06:47;10.40;99.90
18189;DHT22;9219;50.396;8.546;2022-12-24T20:14:21;10.40;99.90
18189;DHT22;9219;50.396;8.546;2022-12-24T20:16:48;10.50;99.90
18189;DHT22;9219;50.396;8.546;2022-12-24T20:19:16;10.70;99.90
18189;DHT22;9219;50.396;8.546;2022-12-24T20:21:44;10.80;99.90
18189;DHT22;9219;50.396;8.546;2022-12-24T20:24:12;10.70;99.90
18189;DHT22;9219;50.396;8.546;2022-12-24T20:26:39;10.60;99.90
18189;DHT22;9219;50.396;8.546;2022-12-24T20:29:08;10.60;99.90
18189;DHT22;9219;50.396;8.546;2022-12-24T20:36:05;10.90;99.90
18189;DHT22;9219;50.396;8.546;2022-12-24T20:38:35;10.90;99.90
18189;DHT22;9219;50.396;8.546;2022-12-24T20:41:02;10.90;99.90
18189;DHT22;9219;50.396;8.546;2022-12-24T20:43:30;10.80;99.90
18189;DHT22;9219;50.396;8.546;2022-12-24T20:46:03;11.00;99.90
18189;DHT22;9219;50.396;8.546;2022-12-24T20:48:31;11.10;99.90
18189;DHT22;9219;50.396;8.546;2022-12-24T20:50:58;11.20;99.90
18189;DHT22;9219;50.396;8.546;2022-12-24T20:57:35;11.30;99.90
18189;DHT22;9219;50.396;8.546;2022-12-24T21:00:03;11.20;99.90
18189;DHT22;9219;50.396;8.546;2022-12-24T21:02:31;11.10;99.90
18189;DHT22;9219;50.396;8.546;2022-12-24T21:04:59;11.20;99.90
18189;DHT22;9219;50.396;8.546;2022-12-24T21:07:29;11.20;99.90
18189;DHT22;9219;50.396;8.546;2022-12-24T21:09:57;11.10;99.90
18189;DHT22;9219;50.396;8.546;2022-12-24T21:12:24;11.00;99.90
18189;DHT22;9219;50.396;8.546;2022-12-24T21:17:50;11.00;99.90